sensor_id;sensor_type;location;lat;lon;timestamp;P1;durP1;ratioP1;P2;durP2;ratioP2
16600;SDS011;34891;48.164;11.572;2022-10-26T00:01:23;1.77;;;1.15;;
16600;SDS011;34891;48.164;11.572;2022-10-26T00:06:27;5.25;;;2.00;;
16600;SDS011;34891;48.164;11.572;2022-10-26T00:11:30;0.73;;;0.70;;
16600;SDS011;34891;48.164;11.572;2022-10-26T00:16:32;3.67;;;1.77;;
16600;SDS011;34891;48.164;11.572;2022-10-26T00:21:36;3.22;;;1.67;;
16600;SDS011;34891;48.164;11.572;2022-10-26T00:26:39;3.70;;;1.48;;
16600;SDS011;34891;48.164;11.572;2022-10-26T00:31:42;2.33;;;1.60;;
16600;SDS011;34891;48.164;11.572;2022-10-26T00:36:45;4.65;;;1.60;;
16600;SDS011;34891;48.164;11.572;2022-10-26T00:46:50;9.18;;;1.88;;
16600;SDS011;34891;48.164;11.572;2022-10-26T00:51:54;2.90;;;1.67;;
16600;SDS011;34891;48.164;11.572;2022-10-26T00:56:57;2.53;;;1.50;;
16600;SDS011;34891;48.164;11.572;2022-10-26T01:02:00;5.63;;;1.77;;
16600;SDS011;34891;48.164;11.572;2022-10-26T01:07:04;3.00;;;1.53;;
16600;SDS011;34891;48.164;11.572;2022-10-26T01:12:10;4.38;;;1.60;;
16600;SDS011;34891;48.164;11.572;2022-10-26T01:17:19;2.47;;;1.50;;
16600;SDS011;34891;48.164;11.572;2022-10-26T01:22:28;4.30;;;1.67;;
16600;SDS011;34891;48.164;11.572;2022-10-26T01:27:36;3.25;;;1.50;;
16600;SDS011;34891;48.164;11.572;2022-10-26T01:32:43;1.52;;;1.20;;
16600;SDS011;34891;48.164;11.572;2022-10-26T01:37:48;4.10;;;1.73;;
16600;SDS011;34891;48.164;11.572;2022-10-26T01:42:55;4.78;;;1.63;;
16600;SDS011;34891;48.164;11.572;2022-10-26T01:48:00;3.38;;;1.63;;
16600;SDS011;34891;48.164;11.572;2022-10-26T01:53:04;3.08;;;1.70;;
16600;SDS011;34891;48.164;11.572;2022-10-26T01:58:09;3.50;;;1.38;;
16600;SDS011;34891;48.164;11.572;2022-10-26T02:03:16;1.92;;;1.38;;
16600;SDS011;34891;48.164;11.572;2022-10-26T02:08:25;3.17;;;1.60;;
16600;SDS011;34891;48.164;11.572;2022-10-26T02:13:30;3.05;;;1.38;;
16600;SDS011;34891;48.164;11.572;2022-10-26T02:18:37;5.30;;;1.55;;
16600;SDS011;34891;48.164;11.572;2022-10-26T02:23:44;4.13;;;1.52;;
16600;SDS011;34891;48.164;11.572;2022-10-26T02:28:49;2.70;;;1.67;;
16600;SDS011;34891;48.164;11.572;2022-10-26T02:33:54;6.32;;;1.65;;
16600;SDS011;34891;48.164;11.572;2022-10-26T02:38:58;4.13;;;1.67;;
16600;SDS011;34891;48.164;11.572;2022-10-26T02:44:03;4.25;;;1.98;;
16600;SDS011;34891;48.164;11.572;2022-10-26T02:49:09;2.33;;;1.40;;
16600;SDS011;34891;48.164;11.572;2022-10-26T02:54:13;3.58;;;1.50;;
16600;SDS011;34891;48.164;11.572;2022-10-26T02:59:17;5.35;;;1.67;;
16600;SDS011;34891;48.164;11.572;2022-10-26T03:04:28;2.63;;;1.40;;
16600;SDS011;34891;48.164;11.572;2022-10-26T03:09:30;2.03;;;1.55;;
16600;SDS011;34891;48.164;11.572;2022-10-26T03:14:34;4.20;;;1.43;;
16600;SDS011;34891;48.164;11.572;2022-10-26T03:19:38;1.73;;;1.42;;
16600;SDS011;34891;48.164;11.572;2022-10-26T03:24:44;2.90;;;1.30;;
16600;SDS011;34891;48.164;11.572;2022-10-26T03:29:47;3.53;;;1.50;;
16600;SDS011;34891;48.164;11.572;2022-10-26T03:34:51;2.25;;;1.38;;
16600;SDS011;34891;48.164;11.572;2022-10-26T03:39:54;1.90;;;1.38;;
16600;SDS011;34891;48.164;11.572;2022-10-26T03:44:56;4.95;;;1.60;;
16600;SDS011;34891;48.164;11.572;2022-10-26T03:50:00;2.20;;;1.50;;
16600;SDS011;34891;48.164;11.572;2022-10-26T03:55:03;1.33;;;1.05;;
16600;SDS011;34891;48.164;11.572;2022-10-26T04:00:06;2.33;;;1.60;;
16600;SDS011;34891;48.164;11.572;2022-10-26T04:05:10;2.07;;;1.30;;
16600;SDS011;34891;48.164;11.572;2022-10-26T04:10:13;2.97;;;1.50;;
16600;SDS011;34891;48.164;11.572;2022-10-26T04:15:16;2.80;;;1.58;;
16600;SDS011;34891;48.164;11.572;2022-10-26T04:20:20;2.73;;;1.30;;
16600;SDS011;34891;48.164;11.572;2022-10-26T04:25:22;7.00;;;1.60;;
16600;SDS011;34891;48.164;11.572;2022-10-26T04:30:31;1.83;;;1.38;;
16600;SDS011;34891;48.164;11.572;2022-10-26T04:35:35;4.97;;;1.57;;
16600;SDS011;34891;48.164;11.572;2022-10-26T04:45:40;1.95;;;1.50;;
16600;SDS011;34891;48.164;11.572;2022-10-26T04:50:44;3.25;;;1.95;;
16600;SDS011;34891;48.164;11.572;2022-10-26T04:55:47;3.70;;;1.77;;
16600;SDS011;34891;48.164;11.572;2022-10-26T05:00:50;3.95;;;2.10;;
16600;SDS011;34891;48.164;11.572;2022-10-26T05:05:56;2.13;;;1.70;;
16600;SDS011;34891;48.164;11.572;2022-10-26T05:10:59;3.47;;;1.60;;
16600;SDS011;34891;48.164;11.572;2022-10-26T05:16:01;3.55;;;1.80;;
16600;SDS011;34891;48.164;11.572;2022-10-26T05:21:05;3.13;;;1.75;;
16600;SDS011;34891;48.164;11.572;2022-10-26T05:26:08;4.68;;;1.70;;
16600;SDS011;34891;48.164;11.572;2022-10-26T05:31:11;3.42;;;1.80;;
16600;SDS011;34891;48.164;11.572;2022-10-26T05:36:15;3.25;;;1.67;;
16600;SDS011;34891;48.164;11.572;2022-10-26T05:41:18;4.72;;;2.17;;
16600;SDS011;34891;48.164;11.572;2022-10-26T05:46:20;3.25;;;1.83;;
16600;SDS011;34891;48.164;11.572;2022-10-26T05:51:24;5.43;;;2.13;;
16600;SDS011;34891;48.164;11.572;2022-10-26T05:56:32;5.50;;;2.22;;
16600;SDS011;34891;48.164;11.572;2022-10-26T06:01:37;4.57;;;2.20;;
16600;SDS011;34891;48.164;11.572;2022-10-26T06:06:44;4.38;;;2.20;;
16600;SDS011;34891;48.164;11.572;2022-10-26T06:11:48;4.82;;;2.13;;
16600;SDS011;34891;48.164;11.572;2022-10-26T06:16:58;4.23;;;2.67;;
16600;SDS011;34891;48.164;11.572;2022-10-26T06:22:10;3.67;;;2.00;;
16600;SDS011;34891;48.164;11.572;2022-10-26T06:27:18;5.05;;;2.28;;
16600;SDS011;34891;48.164;11.572;2022-10-26T06:32:23;5.05;;;2.35;;
16600;SDS011;34891;48.164;11.572;2022-10-26T06:37:27;5.77;;;2.33;;
16600;SDS011;34891;48.164;11.572;2022-10-26T06:42:31;3.47;;;1.98;;
16600;SDS011;34891;48.164;11.572;2022-10-26T06:47:35;6.03;;;2.25;;
16600;SDS011;34891;48.164;11.572;2022-10-26T06:52:41;3.25;;;1.90;;
16600;SDS011;34891;48.164;11.572;2022-10-26T06:57:45;5.90;;;2.70;;
16600;SDS011;34891;48.164;11.572;2022-10-26T07:02:49;3.55;;;1.73;;
16600;SDS011;34891;48.164;11.572;2022-10-26T07:07:53;3.15;;;1.88;;
16600;SDS011;34891;48.164;11.572;2022-10-26T07:17:59;6.15;;;2.38;;
16600;SDS011;34891;48.164;11.572;2022-10-26T07:23:05;9.05;;;2.30;;
16600;SDS011;34891;48.164;11.572;2022-10-26T07:28:08;3.05;;;1.75;;
16600;SDS011;34891;48.164;11.572;2022-10-26T07:33:12;6.90;;;2.53;;
16600;SDS011;34891;48.164;11.572;2022-10-26T07:38:16;3.42;;;1.50;;
16600;SDS011;34891;48.164;11.572;2022-10-26T07:43:18;3.53;;;1.42;;
16600;SDS011;34891;48.164;11.572;2022-10-26T07:48:21;3.25;;;1.30;;
16600;SDS011;34891;48.164;11.572;2022-10-26T07:53:25;4.33;;;1.57;;
16600;SDS011;34891;48.164;11.572;2022-10-26T07:58:28;9.30;;;2.17;;
16600;SDS011;34891;48.164;11.572;2022-10-26T08:03:31;2.28;;;1.35;;
16600;SDS011;34891;48.164;11.572;2022-10-26T08:08:35;2.92;;;1.60;;
16600;SDS011;34891;48.164;11.572;2022-10-26T08:18:39;2.05;;;1.10;;
16600;SDS011;34891;48.164;11.572;2022-10-26T08:23:43;8.93;;;3.63;;
16600;SDS011;34891;48.164;11.572;2022-10-26T08:28:47;3.08;;;1.13;;
16600;SDS011;34891;48.164;11.572;2022-10-26T08:33:49;0.88;;;0.88;;
16600;SDS011;34891;48.164;11.572;2022-10-26T08:38:53;5.85;;;2.10;;
16600;SDS011;34891;48.164;11.572;2022-10-26T08:44:02;5.38;;;2.30;;
16600;SDS011;34891;48.164;11.572;2022-10-26T08:49:09;4.68;;;1.38;;
16600;SDS011;34891;48.164;11.572;2022-10-26T08:54:22;5.85;;;1.65;;
16600;SDS011;34891;48.164;11.572;2022-10-26T08:59:28;1.38;;;1.05;;
16600;SDS011;34891;48.164;11.572;2022-10-26T09:04:32;2.10;;;1.38;;
16600;SDS011;34891;48.164;11.572;2022-10-26T09:09:40;3.78;;;1.70;;
16600;SDS011;34891;48.164;11.572;2022-10-26T09:14:46;2.55;;;1.58;;
16600;SDS011;34891;48.164;11.572;2022-10-26T09:20:02;4.60;;;1.92;;
16600;SDS011;34891;48.164;11.572;2022-10-26T09:30:13;2.10;;;1.90;;
16600;SDS011;34891;48.164;11.572;2022-10-26T09:35:24;3.35;;;1.50;;
16600;SDS011;34891;48.164;11.572;2022-10-26T09:40:28;3.45;;;2.00;;
16600;SDS011;34891;48.164;11.572;2022-10-26T09:45:36;3.22;;;1.30;;
16600;SDS011;34891;48.164;11.572;2022-10-26T09:50:40;3.38;;;1.33;;
16600;SDS011;34891;48.164;11.572;2022-10-26T09:55:45;8.05;;;1.60;;
16600;SDS011;34891;48.164;11.572;2022-10-26T10:00:50;2.60;;;1.00;;
16600;SDS011;34891;48.164;11.572;2022-10-26T10:05:53;3.88;;;1.25;;
16600;SDS011;34891;48.164;11.572;2022-10-26T10:11:15;1.38;;;0.98;;
16600;SDS011;34891;48.164;11.572;2022-10-26T10:16:21;2.65;;;0.90;;
16600;SDS011;34891;48.164;11.572;2022-10-26T10:21:30;2.65;;;1.10;;
16600;SDS011;34891;48.164;11.572;2022-10-26T10:26:37;2.22;;;1.00;;
16600;SDS011;34891;48.164;11.572;2022-10-26T10:31:58;4.90;;;1.20;;
16600;SDS011;34891;48.164;11.572;2022-10-26T10:37:01;2.33;;;1.45;;
16600;SDS011;34891;48.164;11.572;2022-10-26T10:42:05;1.58;;;1.02;;
16600;SDS011;34891;48.164;11.572;2022-10-26T10:47:17;3.47;;;1.25;;
16600;SDS011;34891;48.164;11.572;2022-10-26T10:52:23;3.55;;;1.10;;
16600;SDS011;34891;48.164;11.572;2022-10-26T10:57:28;3.33;;;0.88;;
16600;SDS011;34891;48.164;11.572;2022-10-26T11:07:54;2.38;;;1.05;;
16600;SDS011;34891;48.164;11.572;2022-10-26T11:12:59;7.22;;;1.10;;
16600;SDS011;34891;48.164;11.572;2022-10-26T11:18:05;1.98;;;0.93;;
16600;SDS011;34891;48.164;11.572;2022-10-26T11:23:12;3.47;;;1.10;;
16600;SDS011;34891;48.164;11.572;2022-10-26T11:28:19;3.58;;;1.08;;
16600;SDS011;34891;48.164;11.572;2022-10-26T11:33:27;2.03;;;0.93;;
16600;SDS011;34891;48.164;11.572;2022-10-26T11:38:33;3.67;;;1.08;;
16600;SDS011;34891;48.164;11.572;2022-10-26T11:43:47;4.90;;;1.00;;
16600;SDS011;34891;48.164;11.572;2022-10-26T11:48:50;5.65;;;1.38;;
16600;SDS011;34891;48.164;11.572;2022-10-26T11:53:57;5.13;;;1.42;;
16600;SDS011;34891;48.164;11.572;2022-10-26T11:59:03;6.63;;;1.58;;
16600;SDS011;34891;48.164;11.572;2022-10-26T12:09:11;2.45;;;1.15;;
16600;SDS011;34891;48.164;11.572;2022-10-26T12:14:18;4.50;;;1.58;;
16600;SDS011;34891;48.164;11.572;2022-10-26T12:19:23;4.60;;;1.25;;
16600;SDS011;34891;48.164;11.572;2022-10-26T12:24:34;9.43;;;1.80;;
16600;SDS011;34891;48.164;11.572;2022-10-26T12:29:43;3.60;;;1.25;;
16600;SDS011;34891;48.164;11.572;2022-10-26T12:34:56;4.88;;;1.30;;
16600;SDS011;34891;48.164;11.572;2022-10-26T12:45:22;6.45;;;1.95;;
16600;SDS011;34891;48.164;11.572;2022-10-26T12:50:25;3.63;;;1.30;;
16600;SDS011;34891;48.164;11.572;2022-10-26T12:55:41;5.07;;;1.40;;
16600;SDS011;34891;48.164;11.572;2022-10-26T13:00:54;7.57;;;1.77;;
16600;SDS011;34891;48.164;11.572;2022-10-26T13:06:14;6.72;;;1.70;;
16600;SDS011;34891;48.164;11.572;2022-10-26T13:11:20;7.60;;;2.20;;
16600;SDS011;34891;48.164;11.572;2022-10-26T13:16:27;6.13;;;1.40;;
16600;SDS011;34891;48.164;11.572;2022-10-26T13:21:30;7.35;;;2.30;;
16600;SDS011;34891;48.164;11.572;2022-10-26T13:26:56;10.27;;;1.88;;
16600;SDS011;34891;48.164;11.572;2022-10-26T13:31:57;6.28;;;1.75;;
16600;SDS011;34891;48.164;11.572;2022-10-26T13:37:04;5.25;;;1.67;;
16600;SDS011;34891;48.164;11.572;2022-10-26T13:42:10;12.48;;;1.85;;
16600;SDS011;34891;48.164;11.572;2022-10-26T13:47:23;7.72;;;1.60;;
16600;SDS011;34891;48.164;11.572;2022-10-26T13:52:31;5.57;;;1.38;;
16600;SDS011;34891;48.164;11.572;2022-10-26T13:57:35;5.45;;;1.60;;
16600;SDS011;34891;48.164;11.572;2022-10-26T14:02:41;5.35;;;1.50;;
16600;SDS011;34891;48.164;11.572;2022-10-26T14:07:46;7.70;;;1.33;;
16600;SDS011;34891;48.164;11.572;2022-10-26T14:12:56;7.65;;;1.50;;
16600;SDS011;34891;48.164;11.572;2022-10-26T14:18:00;6.07;;;1.58;;
16600;SDS011;34891;48.164;11.572;2022-10-26T14:23:04;4.68;;;1.80;;
16600;SDS011;34891;48.164;11.572;2022-10-26T14:28:18;8.63;;;1.50;;
16600;SDS011;34891;48.164;11.572;2022-10-26T14:33:24;5.45;;;1.50;;
16600;SDS011;34891;48.164;11.572;2022-10-26T14:38:37;4.78;;;1.50;;
16600;SDS011;34891;48.164;11.572;2022-10-26T14:43:43;7.88;;;1.52;;
16600;SDS011;34891;48.164;11.572;2022-10-26T14:48:51;6.03;;;2.05;;
16600;SDS011;34891;48.164;11.572;2022-10-26T14:53:55;5.00;;;1.83;;
16600;SDS011;34891;48.164;11.572;2022-10-26T14:58:58;11.63;;;1.90;;
16600;SDS011;34891;48.164;11.572;2022-10-26T15:04:03;4.53;;;1.63;;
16600;SDS011;34891;48.164;11.572;2022-10-26T15:09:19;4.40;;;1.60;;
16600;SDS011;34891;48.164;11.572;2022-10-26T15:14:29;4.70;;;1.67;;
16600;SDS011;34891;48.164;11.572;2022-10-26T15:19:33;7.40;;;2.20;;
16600;SDS011;34891;48.164;11.572;2022-10-26T15:24:37;8.25;;;2.03;;
16600;SDS011;34891;48.164;11.572;2022-10-26T15:29:41;8.45;;;1.83;;
16600;SDS011;34891;48.164;11.572;2022-10-26T15:34:47;9.43;;;2.50;;
16600;SDS011;34891;48.164;11.572;2022-10-26T15:39:50;7.93;;;1.65;;
16600;SDS011;34891;48.164;11.572;2022-10-26T15:44:52;9.80;;;2.05;;
16600;SDS011;34891;48.164;11.572;2022-10-26T15:49:56;3.60;;;1.50;;
16600;SDS011;34891;48.164;11.572;2022-10-26T15:54:59;9.02;;;2.10;;
16600;SDS011;34891;48.164;11.572;2022-10-26T16:00:02;9.40;;;2.08;;
16600;SDS011;34891;48.164;11.572;2022-10-26T16:05:07;7.00;;;2.10;;
16600;SDS011;34891;48.164;11.572;2022-10-26T16:10:13;7.20;;;2.20;;
16600;SDS011;34891;48.164;11.572;2022-10-26T16:15:17;10.63;;;3.25;;
16600;SDS011;34891;48.164;11.572;2022-10-26T16:25:24;9.53;;;3.00;;
16600;SDS011;34891;48.164;11.572;2022-10-26T16:30:27;6.85;;;2.25;;
16600;SDS011;34891;48.164;11.572;2022-10-26T16:35:31;10.52;;;2.72;;
16600;SDS011;34891;48.164;11.572;2022-10-26T16:40:36;10.45;;;3.38;;
16600;SDS011;34891;48.164;11.572;2022-10-26T16:45:43;6.78;;;2.50;;
16600;SDS011;34891;48.164;11.572;2022-10-26T16:50:46;11.75;;;2.88;;
16600;SDS011;34891;48.164;11.572;2022-10-26T16:55:49;12.02;;;3.90;;
16600;SDS011;34891;48.164;11.572;2022-10-26T17:00:52;13.68;;;2.90;;
16600;SDS011;34891;48.164;11.572;2022-10-26T17:05:55;9.23;;;2.92;;
16600;SDS011;34891;48.164;11.572;2022-10-26T17:16:03;10.75;;;2.80;;
16600;SDS011;34891;48.164;11.572;2022-10-26T17:21:05;12.55;;;3.80;;
16600;SDS011;34891;48.164;11.572;2022-10-26T17:26:09;11.40;;;3.65;;
16600;SDS011;34891;48.164;11.572;2022-10-26T17:31:14;5.70;;;2.78;;
16600;SDS011;34891;48.164;11.572;2022-10-26T17:36:17;9.23;;;2.92;;
16600;SDS011;34891;48.164;11.572;2022-10-26T17:41:20;16.23;;;3.83;;
16600;SDS011;34891;48.164;11.572;2022-10-26T17:46:24;11.13;;;3.40;;
16600;SDS011;34891;48.164;11.572;2022-10-26T17:51:28;7.25;;;3.20;;
16600;SDS011;34891;48.164;11.572;2022-10-26T17:56:31;14.70;;;3.45;;
16600;SDS011;34891;48.164;11.572;2022-10-26T18:01:36;8.80;;;3.38;;
16600;SDS011;34891;48.164;11.572;2022-10-26T18:06:39;10.15;;;3.38;;
16600;SDS011;34891;48.164;11.572;2022-10-26T18:11:41;13.50;;;3.13;;
16600;SDS011;34891;48.164;11.572;2022-10-26T18:16:46;13.52;;;3.67;;
16600;SDS011;34891;48.164;11.572;2022-10-26T18:21:48;10.38;;;3.65;;
16600;SDS011;34891;48.164;11.572;2022-10-26T18:26:51;13.30;;;3.92;;
16600;SDS011;34891;48.164;11.572;2022-10-26T18:31:55;15.13;;;4.10;;
16600;SDS011;34891;48.164;11.572;2022-10-26T18:37:04;16.13;;;5.50;;
16600;SDS011;34891;48.164;11.572;2022-10-26T18:42:07;18.77;;;5.78;;
16600;SDS011;34891;48.164;11.572;2022-10-26T18:47:11;17.55;;;6.00;;
16600;SDS011;34891;48.164;11.572;2022-10-26T18:52:13;16.10;;;6.30;;
16600;SDS011;34891;48.164;11.572;2022-10-26T18:57:16;18.13;;;6.85;;
16600;SDS011;34891;48.164;11.572;2022-10-26T19:02:20;19.03;;;5.07;;
16600;SDS011;34891;48.164;11.572;2022-10-26T19:07:23;12.55;;;5.38;;
16600;SDS011;34891;48.164;11.572;2022-10-26T19:12:26;15.57;;;6.87;;
16600;SDS011;34891;48.164;11.572;2022-10-26T19:17:30;15.13;;;6.25;;
16600;SDS011;34891;48.164;11.572;2022-10-26T19:22:33;14.88;;;6.97;;
16600;SDS011;34891;48.164;11.572;2022-10-26T19:27:36;9.93;;;4.20;;
16600;SDS011;34891;48.164;11.572;2022-10-26T19:32:40;11.63;;;4.13;;
16600;SDS011;34891;48.164;11.572;2022-10-26T19:37:43;17.50;;;6.85;;
16600;SDS011;34891;48.164;11.572;2022-10-26T19:42:45;13.15;;;5.20;;
16600;SDS011;34891;48.164;11.572;2022-10-26T19:47:49;10.50;;;5.07;;
16600;SDS011;34891;48.164;11.572;2022-10-26T19:52:52;10.93;;;5.05;;
16600;SDS011;34891;48.164;11.572;2022-10-26T19:57:55;14.07;;;4.13;;
16600;SDS011;34891;48.164;11.572;2022-10-26T20:02:59;15.98;;;4.47;;
16600;SDS011;34891;48.164;11.572;2022-10-26T20:13:04;13.60;;;4.13;;
16600;SDS011;34891;48.164;11.572;2022-10-26T20:18:08;12.15;;;5.03;;
16600;SDS011;34891;48.164;11.572;2022-10-26T20:23:12;9.65;;;4.22;;
16600;SDS011;34891;48.164;11.572;2022-10-26T20:28:15;12.88;;;5.10;;
16600;SDS011;34891;48.164;11.572;2022-10-26T20:33:19;15.87;;;4.70;;
16600;SDS011;34891;48.164;11.572;2022-10-26T20:38:22;12.48;;;4.97;;
16600;SDS011;34891;48.164;11.572;2022-10-26T20:43:25;18.83;;;7.30;;
16600;SDS011;34891;48.164;11.572;2022-10-26T20:48:30;16.20;;;5.93;;
16600;SDS011;34891;48.164;11.572;2022-10-26T20:53:33;11.68;;;4.40;;
16600;SDS011;34891;48.164;11.572;2022-10-26T20:58:37;11.63;;;4.32;;
16600;SDS011;34891;48.164;11.572;2022-10-26T21:03:42;12.90;;;4.70;;
16600;SDS011;34891;48.164;11.572;2022-10-26T21:08:46;10.93;;;4.20;;
16600;SDS011;34891;48.164;11.572;2022-10-26T21:13:50;13.52;;;4.07;;
16600;SDS011;34891;48.164;11.572;2022-10-26T21:18:54;8.02;;;3.20;;
16600;SDS011;34891;48.164;11.572;2022-10-26T21:23:57;9.48;;;3.80;;
16600;SDS011;34891;48.164;11.572;2022-10-26T21:28:59;5.57;;;2.63;;
16600;SDS011;34891;48.164;11.572;2022-10-26T21:34:03;11.05;;;3.78;;
16600;SDS011;34891;48.164;11.572;2022-10-26T21:44:08;10.32;;;3.90;;
16600;SDS011;34891;48.164;11.572;2022-10-26T21:49:32;9.93;;;3.83;;
16600;SDS011;34891;48.164;11.572;2022-10-26T21:54:35;7.72;;;2.83;;
16600;SDS011;34891;48.164;11.572;2022-10-26T21:59:38;9.75;;;4.15;;
16600;SDS011;34891;48.164;11.572;2022-10-26T22:04:42;11.50;;;3.72;;
16600;SDS011;34891;48.164;11.572;2022-10-26T22:09:44;9.95;;;3.70;;
16600;SDS011;34891;48.164;11.572;2022-10-26T22:15:07;15.45;;;3.97;;
16600;SDS011;34891;48.164;11.572;2022-10-26T22:20:11;9.47;;;4.10;;
16600;SDS011;34891;48.164;11.572;2022-10-26T22:25:20;9.05;;;3.67;;
16600;SDS011;34891;48.164;11.572;2022-10-26T22:30:23;10.43;;;3.13;;
16600;SDS011;34891;48.164;11.572;2022-10-26T22:35:27;12.73;;;3.30;;
16600;SDS011;34891;48.164;11.572;2022-10-26T22:40:30;9.10;;;3.33;;
16600;SDS011;34891;48.164;11.572;2022-10-26T22:45:33;15.57;;;3.80;;
16600;SDS011;34891;48.164;11.572;2022-10-26T22:50:37;8.70;;;3.47;;
16600;SDS011;34891;48.164;11.572;2022-10-26T22:55:39;9.35;;;4.05;;
16600;SDS011;34891;48.164;11.572;2022-10-26T23:00:42;8.73;;;3.25;;
16600;SDS011;34891;48.164;11.572;2022-10-26T23:05:56;8.63;;;2.65;;
16600;SDS011;34891;48.164;11.572;2022-10-26T23:10:59;10.10;;;3.40;;
16600;SDS011;34891;48.164;11.572;2022-10-26T23:16:03;9.88;;;3.40;;
16600;SDS011;34891;48.164;11.572;2022-10-26T23:21:07;8.32;;;3.40;;
16600;SDS011;34891;48.164;11.572;2022-10-26T23:26:11;7.85;;;3.55;;
16600;SDS011;34891;48.164;11.572;2022-10-26T23:31:16;8.45;;;3.08;;
16600;SDS011;34891;48.164;11.572;2022-10-26T23:36:20;11.00;;;3.45;;
16600;SDS011;34891;48.164;11.572;2022-10-26T23:41:23;3.60;;;1.70;;
16600;SDS011;34891;48.164;11.572;2022-10-26T23:46:25;3.80;;;1.52;;
16600;SDS011;34891;48.164;11.572;2022-10-26T23:51:29;8.93;;;3.17;;
16600;SDS011;34891;48.164;11.572;2022-10-26T23:56:32;8.38;;;2.25;;
